Time;durP1;ratioP1;P1;durP2;ratioP2;P2;SDS_P1;SDS_P2;PMS_P1;PMS_P2;Temp;Humidity;BMP_temperature;BMP_pressure;BME280_temperature;BME280_humidity;BME280_pressure;Samples;Min_cycle;Max_cycle;Signal;HPM_P1;HPM_P2
2022/10/23 00:01:42;;;;;;;12.60;7.80;;;10.80;99.90;;;;;;5042637;28;20662;-91
2022/10/23 00:04:14;;;;;;;12.43;8.20;;;11.10;99.90;;;;;;5049636;28;20614;-90
2022/10/23 00:06:41;;;;;;;10.37;7.80;;;10.90;99.90;;;;;;5048323;28;21079;-91
2022/10/23 00:09:11;;;;;;;11.80;8.40;;;11.10;99.90;;;;;;5048044;28;20721;-91
2022/10/23 00:11:39;;;;;;;11.07;6.90;;;11.00;99.90;;;;;;5045420;28;20653;-90
2022/10/23 00:14:12;;;;;;;8.53;6.67;;;11.00;99.90;;;;;;5045284;28;20641;-90
2022/10/23 00:16:39;;;;;;;12.10;7.80;;;10.90;99.90;;;;;;5047608;28;20648;-90
2022/10/23 00:19:07;;;;;;;8.70;7.10;;;10.60;99.90;;;;;;5043121;28;20640;-91
2022/10/23 00:21:35;;;;;;;12.50;7.63;;;10.90;99.90;;;;;;5047350;28;21315;-90
2022/10/23 00:24:02;;;;;;;12.87;6.80;;;10.60;99.90;;;;;;5049091;28;20672;-90
2022/10/23 00:26:29;;;;;;;8.87;7.70;;;10.90;99.90;;;;;;5048735;28;20667;-90
2022/10/23 00:28:56;;;;;;;8.43;7.60;;;10.90;99.90;;;;;;5044726;28;20628;-90
2022/10/23 00:31:24;;;;;;;14.37;8.00;;;10.90;99.90;;;;;;5047294;28;21152;-90
2022/10/23 00:33:51;;;;;;;10.07;6.63;;;10.80;99.90;;;;;;5047435;28;20730;-91
2022/10/23 00:36:20;;;;;;;10.27;7.20;;;10.40;99.90;;;;;;5046440;28;21020;-90
2022/10/23 00:38:51;;;;;;;9.00;7.37;;;10.50;99.90;;;;;;5049360;28;20634;-90
2022/10/23 00:41:21;;;;;;;14.70;7.77;;;10.70;99.90;;;;;;5044671;28;20757;-90
2022/10/23 00:44:00;;;;;;;11.60;8.10;;;10.90;99.90;;;;;;5045911;28;20661;-90
2022/10/23 00:46:28;;;;;;;17.83;8.63;;;10.50;99.90;;;;;;5042984;28;21018;-91
2022/10/23 00:48:56;;;;;;;14.67;8.20;;;10.60;99.90;;;;;;5048596;28;20619;-90
2022/10/23 00:51:23;;;;;;;13.43;8.40;;;10.60;99.90;;;;;;5044967;28;20657;-89
2022/10/23 00:53:57;;;;;;;10.57;8.03;;;10.40;99.90;;;;;;5045742;28;21324;-90
2022/10/23 00:56:25;;;;;;;9.70;8.47;;;10.70;99.90;;;;;;5041417;28;21253;-90
2022/10/23 00:58:52;;;;;;;9.97;8.27;;;10.50;99.90;;;;;;5048041;28;21188;-89
2022/10/23 01:01:21;;;;;;;7.97;7.27;;;10.70;99.90;;;;;;5047287;28;20661;-89
2022/10/23 01:03:49;;;;;;;12.13;6.50;;;10.60;99.90;;;;;;5043934;28;20631;-89
2022/10/23 01:06:21;;;;;;;10.23;6.60;;;10.50;99.90;;;;;;5046670;28;20664;-89
2022/10/23 01:08:56;;;;;;;8.57;7.00;;;10.50;99.90;;;;;;5048333;28;20626;-90
2022/10/23 01:11:27;;;;;;;8.03;7.23;;;10.30;99.90;;;;;;5045877;28;20757;-90
2022/10/23 01:14:01;;;;;;;13.03;6.60;;;10.60;99.90;;;;;;5046399;28;20621;-90
2022/10/23 01:16:37;;;;;;;10.20;6.13;;;10.60;99.90;;;;;;5046002;28;20646;-89
2022/10/23 01:19:11;;;;;;;7.77;6.80;;;10.50;99.90;;;;;;5045666;28;20632;-89
2022/10/23 01:21:49;;;;;;;8.97;7.50;;;10.50;99.90;;;;;;5040957;28;20618;-89
2022/10/23 01:24:32;;;;;;;10.83;7.53;;;10.50;99.90;;;;;;5044767;28;20752;-89
2022/10/23 01:27:21;;;;;;;8.87;7.60;;;10.60;99.90;;;;;;5044135;28;20658;-90
2022/10/23 01:29:59;;;;;;;10.83;7.33;;;10.70;99.90;;;;;;5043734;28;20613;-89
2022/10/23 01:32:32;;;;;;;8.37;7.57;;;10.10;99.90;;;;;;5043414;28;20654;-89
2022/10/23 01:35:05;;;;;;;8.87;6.80;;;10.40;99.90;;;;;;5048380;28;20629;-89
2022/10/23 01:37:37;;;;;;;8.93;7.67;;;10.30;99.90;;;;;;5045187;28;20666;-89
2022/10/23 01:40:09;;;;;;;11.10;7.90;;;10.10;99.90;;;;;;5048886;28;20640;-89
2022/10/23 01:42:43;;;;;;;11.40;7.40;;;10.50;99.90;;;;;;5043664;28;20638;-89
2022/10/23 01:45:16;;;;;;;8.50;7.10;;;10.30;99.90;;;;;;5052974;28;21203;-89
2022/10/23 01:47:44;;;;;;;8.47;7.47;;;10.30;99.90;;;;;;5046157;28;21111;-90
2022/10/23 01:50:14;;;;;;;11.70;7.67;;;10.50;99.90;;;;;;5049557;28;21161;-89
2022/10/23 01:52:41;;;;;;;10.63;7.37;;;10.20;99.90;;;;;;5053192;28;20622;-89
2022/10/23 01:55:12;;;;;;;7.90;7.10;;;10.70;99.90;;;;;;5046783;28;20617;-90
2022/10/23 01:57:41;;;;;;;10.03;6.50;;;10.10;99.90;;;;;;5055179;28;20659;-90
2022/10/23 02:00:11;;;;;;;10.70;6.83;;;10.20;99.90;;;;;;5053556;28;20626;-89
2022/10/23 02:02:39;;;;;;;7.57;6.63;;;10.50;99.90;;;;;;5057239;28;20626;-90
2022/10/23 02:05:09;;;;;;;8.97;8.07;;;10.30;99.90;;;;;;5044889;28;20973;-90
2022/10/23 02:07:36;;;;;;;9.83;7.70;;;10.50;99.90;;;;;;5050922;28;20661;-90
2022/10/23 02:10:05;;;;;;;11.30;8.27;;;10.00;99.90;;;;;;5053730;28;20622;-90
2022/10/23 02:12:40;;;;;;;8.37;7.67;;;10.70;99.90;;;;;;5051677;28;20669;-90
2022/10/23 02:15:13;;;;;;;12.67;8.17;;;10.40;99.90;;;;;;5045404;28;20629;-90
2022/10/23 02:17:47;;;;;;;8.37;7.10;;;10.40;99.90;;;;;;5050112;28;20664;-90
2022/10/23 02:20:20;;;;;;;11.07;6.93;;;10.40;99.90;;;;;;5052700;28;20627;-89
2022/10/23 02:22:55;;;;;;;9.13;6.93;;;10.40;99.90;;;;;;5049613;28;20625;-89
2022/10/23 02:25:29;;;;;;;10.30;8.10;;;10.40;99.90;;;;;;5047929;28;20998;-90
2022/10/23 02:28:00;;;;;;;11.50;7.00;;;10.20;99.90;;;;;;5056503;28;20642;-90
2022/10/23 02:30:38;;;;;;;8.80;7.00;;;9.90;99.90;;;;;;5055272;28;21165;-90
2022/10/23 02:33:06;;;;;;;7.97;6.70;;;9.90;99.90;;;;;;5063389;28;21447;-90
2022/10/23 02:35:33;;;;;;;8.70;7.00;;;10.20;99.90;;;;;;5065366;28;20656;-89
2022/10/23 02:38:01;;;;;;;8.07;6.00;;;10.20;99.90;;;;;;5073219;28;21072;-89
2022/10/23 02:40:38;;;;;;;9.33;6.50;;;10.40;99.90;;;;;;5070387;28;20614;-90
2022/10/23 02:43:13;;;;;;;10.30;6.53;;;10.40;99.90;;;;;;5068393;28;20648;-90
2022/10/23 02:45:48;;;;;;;7.47;6.40;;;10.20;99.90;;;;;;5072443;28;20629;-90
2022/10/23 02:48:22;;;;;;;11.60;7.07;;;10.20;99.90;;;;;;5068833;28;20705;-90
2022/10/23 02:50:53;;;;;;;8.43;6.40;;;10.70;99.90;;;;;;5068779;28;20677;-89
2022/10/23 02:53:26;;;;;;;8.80;6.60;;;10.00;99.90;;;;;;5056555;28;20618;-90
2022/10/23 02:56:01;;;;;;;9.30;6.63;;;10.40;99.90;;;;;;5059998;28;20618;-89
2022/10/23 02:58:33;;;;;;;11.50;8.00;;;10.40;99.90;;;;;;5054203;28;20933;-90
2022/10/23 03:01:06;;;;;;;8.03;7.33;;;10.00;99.90;;;;;;5045234;28;20708;-90
2022/10/23 03:03:38;;;;;;;9.40;7.27;;;10.20;99.90;;;;;;5045437;28;21217;-90
2022/10/23 03:06:05;;;;;;;7.77;7.03;;;10.30;99.90;;;;;;5047176;28;20645;-89
2022/10/23 03:08:41;;;;;;;8.67;7.90;;;10.60;99.90;;;;;;5049724;28;20618;-90
2022/10/23 03:11:08;;;;;;;11.93;7.80;;;10.50;99.90;;;;;;5051421;28;20672;-90
2022/10/23 03:13:35;;;;;;;8.70;7.90;;;10.50;99.90;;;;;;5048528;28;20623;-89
2022/10/23 03:16:03;;;;;;;7.30;6.60;;;10.70;99.90;;;;;;5049381;28;20649;-90
2022/10/23 03:18:30;;;;;;;7.80;7.10;;;10.50;99.90;;;;;;5046280;28;20610;-90
2022/10/23 03:20:57;;;;;;;12.20;7.30;;;10.30;99.90;;;;;;5048872;28;20679;-90
2022/10/23 03:23:24;;;;;;;8.37;7.60;;;10.50;99.90;;;;;;5046466;28;20636;-90
2022/10/23 03:25:52;;;;;;;8.10;7.23;;;10.30;99.90;;;;;;5043436;28;20726;-87
2022/10/23 03:28:19;;;;;;;8.97;8.07;;;10.50;99.90;;;;;;5044930;28;21184;-90
2022/10/23 03:30:46;;;;;;;10.10;7.63;;;10.20;99.90;;;;;;5046889;28;20983;-90
2022/10/23 03:33:15;;;;;;;8.47;7.50;;;10.00;99.90;;;;;;5047945;28;20641;-90
2022/10/23 03:35:42;;;;;;;12.70;8.00;;;10.10;99.90;;;;;;5047107;28;20636;-90
2022/10/23 03:38:09;;;;;;;10.20;9.40;;;10.20;99.90;;;;;;5049440;28;20641;-90
2022/10/23 03:40:36;;;;;;;11.00;8.43;;;10.40;99.90;;;;;;5049773;28;20641;-91
2022/10/23 03:43:03;;;;;;;12.20;7.77;;;10.10;99.90;;;;;;5050754;28;21229;-91
2022/10/23 03:45:31;;;;;;;11.50;6.97;;;10.60;99.90;;;;;;5048419;28;20630;-91
2022/10/23 03:47:58;;;;;;;6.90;6.30;;;10.30;99.90;;;;;;5045216;28;20701;-90
2022/10/23 03:50:26;;;;;;;8.17;6.83;;;10.40;99.90;;;;;;5049068;28;20625;-89
2022/10/23 03:52:53;;;;;;;8.17;6.60;;;10.40;99.90;;;;;;5047062;28;20672;-90
2022/10/23 03:55:21;;;;;;;7.67;6.63;;;10.30;99.90;;;;;;5047192;28;21383;-90
2022/10/23 03:57:49;;;;;;;7.37;6.50;;;10.60;99.90;;;;;;5042909;28;21236;-90
2022/10/23 04:00:16;;;;;;;7.17;6.47;;;10.70;99.90;;;;;;5049164;28;20634;-92
2022/10/23 04:02:43;;;;;;;6.77;6.27;;;10.60;99.90;;;;;;5047075;28;21163;-90
2022/10/23 04:05:10;;;;;;;11.70;6.90;;;10.70;99.90;;;;;;5051555;28;21229;-91
2022/10/23 04:07:38;;;;;;;7.17;6.47;;;10.70;99.90;;;;;;5051153;28;20664;-91
2022/10/23 04:10:06;;;;;;;11.73;5.60;;;10.60;99.90;;;;;;5056634;28;20732;-90
2022/10/23 04:12:34;;;;;;;7.70;6.90;;;10.60;99.90;;;;;;5068002;28;20737;-91
2022/10/23 04:15:00;;;;;;;8.40;6.70;;;10.40;99.90;;;;;;5047420;28;20618;-91
2022/10/23 04:17:27;;;;;;;8.67;7.63;;;10.70;99.90;;;;;;5047932;28;20665;-91
2022/10/23 04:19:55;;;;;;;13.23;7.50;;;10.70;99.90;;;;;;5044323;28;21025;-90
2022/10/23 04:22:22;;;;;;;14.80;7.77;;;10.70;99.90;;;;;;5043417;28;21035;-91
2022/10/23 04:24:50;;;;;;;10.73;8.70;;;10.60;99.90;;;;;;5045876;28;20716;-90
2022/10/23 04:27:17;;;;;;;11.13;6.70;;;10.70;99.90;;;;;;5043867;28;20665;-91
2022/10/23 04:29:44;;;;;;;7.80;6.47;;;10.70;99.90;;;;;;5046726;28;20733;-90
2022/10/23 04:32:11;;;;;;;12.30;7.17;;;10.20;99.90;;;;;;5042869;28;21027;-90
2022/10/23 04:34:38;;;;;;;9.10;7.17;;;10.60;99.90;;;;;;5043755;28;20723;-90
2022/10/23 04:37:05;;;;;;;18.63;8.40;;;10.60;99.90;;;;;;5041691;28;20800;-90
2022/10/23 04:39:32;;;;;;;7.30;5.77;;;10.60;99.90;;;;;;5041049;28;20663;-90
2022/10/23 04:42:00;;;;;;;7.03;6.33;;;10.20;99.90;;;;;;5042950;28;21062;-90
2022/10/23 04:44:27;;;;;;;11.07;6.83;;;10.30;99.90;;;;;;5043130;28;20734;-92
2022/10/23 04:46:55;;;;;;;9.23;6.77;;;10.60;99.90;;;;;;5042821;28;21043;-91
2022/10/23 04:49:22;;;;;;;8.80;7.50;;;10.70;99.90;;;;;;5040532;28;20658;-91
2022/10/23 04:51:49;;;;;;;9.43;6.40;;;10.70;99.90;;;;;;5042715;28;20657;-90
2022/10/23 04:54:16;;;;;;;8.03;6.13;;;10.70;99.90;;;;;;5045307;28;21178;-91
2022/10/23 04:56:43;;;;;;;6.83;6.20;;;10.80;99.90;;;;;;5042572;28;20730;-90
2022/10/23 04:59:11;;;;;;;5.70;5.20;;;10.80;99.90;;;;;;5046324;28;20716;-90
2022/10/23 05:01:39;;;;;;;11.70;5.80;;;10.70;99.90;;;;;;5041975;28;20781;-91
2022/10/23 05:04:06;;;;;;;6.17;5.43;;;10.80;99.90;;;;;;5049318;28;20665;-91
2022/10/23 05:06:33;;;;;;;5.40;4.90;;;10.70;99.90;;;;;;5043880;28;20670;-91
2022/10/23 05:09:00;;;;;;;8.97;4.83;;;10.80;99.90;;;;;;5046961;28;20630;-91
2022/10/23 05:11:26;;;;;;;6.93;5.30;;;10.40;99.90;;;;;;5045811;28;20632;-91
2022/10/23 05:13:53;;;;;;;5.80;4.57;;;10.60;99.90;;;;;;5048560;28;20639;-91
2022/10/23 05:16:36;;;;;;;6.90;4.80;;;10.90;99.90;;;;;;5050621;28;20728;-91
2022/10/23 05:19:03;;;;;;;5.00;4.50;;;11.00;99.90;;;;;;5045204;28;21002;-91
2022/10/23 05:21:33;;;;;;;8.70;4.90;;;10.50;99.90;;;;;;5048332;28;20662;-92
2022/10/23 05:24:01;;;;;;;11.90;5.17;;;11.00;99.90;;;;;;5053113;28;20726;-91
2022/10/23 05:26:28;;;;;;;6.50;4.33;;;11.00;99.90;;;;;;5049920;28;20773;-92
2022/10/23 05:28:55;;;;;;;8.50;5.50;;;10.70;99.90;;;;;;5052208;28;20621;-92
2022/10/23 05:31:25;;;;;;;7.57;4.80;;;11.00;99.90;;;;;;5051727;28;21203;-91
2022/10/23 05:33:54;;;;;;;5.43;4.90;;;10.80;99.90;;;;;;5050130;28;20630;-91
2022/10/23 05:36:23;;;;;;;8.40;5.10;;;10.70;99.90;;;;;;5051642;28;20649;-93
2022/10/23 05:38:52;;;;;;;5.10;4.57;;;11.10;99.90;;;;;;5049355;28;20736;-92
2022/10/23 05:41:19;;;;;;;4.93;4.43;;;11.00;99.90;;;;;;5047373;28;21185;-92
2022/10/23 05:43:46;;;;;;;6.40;4.00;;;11.00;99.90;;;;;;5050613;28;21228;-92
2022/10/23 05:46:13;;;;;;;8.13;4.07;;;11.00;99.90;;;;;;5049157;28;20649;-93
2022/10/23 05:48:41;;;;;;;4.30;3.67;;;11.00;99.90;;;;;;5051916;28;20725;-92
2022/10/23 05:51:11;;;;;;;5.80;3.90;;;11.00;99.90;;;;;;5051918;28;20673;-91
2022/10/23 05:53:37;;;;;;;6.80;4.10;;;10.80;99.90;;;;;;5048998;28;20693;-92
2022/10/23 05:56:07;;;;;;;8.43;4.27;;;10.90;99.90;;;;;;5050707;28;20750;-92
2022/10/23 05:58:34;;;;;;;4.80;4.40;;;10.90;99.90;;;;;;5051146;28;20620;-93
2022/10/23 06:01:05;;;;;;;7.97;4.30;;;11.00;99.90;;;;;;5051666;28;20694;-91
2022/10/23 06:03:32;;;;;;;6.47;4.90;;;11.00;99.90;;;;;;5052013;28;20708;-91
2022/10/23 06:06:02;;;;;;;8.13;5.87;;;11.00;99.90;;;;;;5049224;28;21259;-91
2022/10/23 06:08:32;;;;;;;7.13;6.53;;;10.80;99.90;;;;;;5052358;28;20633;-92
2022/10/23 06:11:06;;;;;;;8.93;7.17;;;10.80;99.90;;;;;;5052409;28;20681;-92
2022/10/23 06:13:37;;;;;;;9.03;8.30;;;10.50;99.90;;;;;;5047098;28;20658;-91
2022/10/23 06:16:11;;;;;;;9.17;8.17;;;10.60;99.90;;;;;;5047506;28;20701;-91
2022/10/23 06:18:40;;;;;;;7.97;7.23;;;10.50;99.90;;;;;;5052237;28;20628;-91
2022/10/23 06:21:16;;;;;;;7.27;6.57;;;10.40;99.90;;;;;;5059454;28;20633;-91
2022/10/23 06:23:47;;;;;;;8.27;6.70;;;10.60;99.90;;;;;;5058692;28;20619;-90
2022/10/23 06:26:16;;;;;;;7.40;6.63;;;10.50;99.90;;;;;;5051750;28;20638;-91
2022/10/23 06:28:43;;;;;;;13.63;6.57;;;10.60;99.90;;;;;;5057131;28;20626;-89
2022/10/23 06:31:13;;;;;;;8.57;6.73;;;10.60;99.90;;;;;;5054586;28;20628;-89
2022/10/23 06:33:40;;;;;;;6.33;5.73;;;10.60;99.90;;;;;;5041472;28;20741;-89
2022/10/23 06:36:09;;;;;;;7.70;5.77;;;10.70;99.90;;;;;;5048140;28;20668;-88
2022/10/23 06:38:39;;;;;;;7.37;6.17;;;10.80;99.90;;;;;;5044584;28;21041;-88
2022/10/23 06:41:07;;;;;;;13.50;5.93;;;10.50;99.90;;;;;;5049933;28;20633;-89
2022/10/23 06:43:34;;;;;;;6.10;5.10;;;10.70;99.90;;;;;;5045391;28;20630;-91
2022/10/23 06:46:02;;;;;;;9.40;5.67;;;11.00;99.90;;;;;;5045412;28;20642;-89
2022/10/23 06:48:32;;;;;;;10.67;5.30;;;11.10;99.90;;;;;;5047605;28;20622;-90
2022/10/23 06:50:59;;;;;;;8.47;5.30;;;10.70;99.90;;;;;;5057856;28;20736;-89
2022/10/23 06:53:26;;;;;;;5.27;4.77;;;10.80;99.90;;;;;;5057532;28;20676;-91
2022/10/23 06:55:59;;;;;;;10.47;6.13;;;11.30;99.90;;;;;;5045184;28;20733;-90
2022/10/23 06:58:25;;;;;;;8.33;5.17;;;11.30;99.90;;;;;;5043648;28;20621;-90
2022/10/23 07:00:52;;;;;;;5.47;4.97;;;11.30;99.90;;;;;;5049735;28;21374;-90
2022/10/23 07:03:19;;;;;;;6.23;5.63;;;11.10;99.90;;;;;;5052688;28;20606;-89
2022/10/23 07:05:46;;;;;;;8.73;5.70;;;11.10;99.90;;;;;;5049814;28;20763;-88
2022/10/23 07:08:13;;;;;;;7.20;4.50;;;11.20;99.90;;;;;;5052394;28;20630;-91
2022/10/23 07:10:41;;;;;;;10.17;5.87;;;11.20;99.90;;;;;;5046592;28;20634;-89
2022/10/23 07:13:11;;;;;;;9.33;5.37;;;11.30;99.90;;;;;;5050175;28;21535;-90
2022/10/23 07:15:39;;;;;;;5.47;4.87;;;11.10;99.90;;;;;;5045104;28;20631;-90
2022/10/23 07:18:13;;;;;;;6.20;4.93;;;11.10;99.90;;;;;;5050060;28;20638;-89
2022/10/23 07:20:40;;;;;;;7.03;4.37;;;11.10;99.90;;;;;;5043424;28;21224;-90
2022/10/23 07:23:07;;;;;;;7.07;4.83;;;11.10;99.90;;;;;;5046786;28;20944;-90
2022/10/23 07:25:36;;;;;;;6.43;4.43;;;11.70;99.90;;;;;;5046383;28;20610;-91
2022/10/23 07:28:04;;;;;;;6.30;4.77;;;11.70;99.90;;;;;;5047940;28;20653;-90
2022/10/23 07:30:32;;;;;;;3.97;3.67;;;11.90;99.90;;;;;;5046954;28;20626;-91
2022/10/23 07:32:59;;;;;;;8.27;4.20;;;11.50;99.90;;;;;;5049667;28;21112;-91
2022/10/23 07:35:26;;;;;;;6.30;5.30;;;11.70;99.90;;;;;;5052161;28;20732;-93
2022/10/23 07:37:53;;;;;;;11.30;5.60;;;11.60;99.90;;;;;;5050863;28;20657;-92
2022/10/23 07:40:20;;;;;;;6.47;3.97;;;12.10;99.90;;;;;;5042332;28;20622;-91
2022/10/23 07:42:48;;;;;;;6.63;4.50;;;12.10;99.90;;;;;;5044593;28;20627;-91
2022/10/23 07:45:16;;;;;;;9.00;4.30;;;12.10;99.90;;;;;;5042659;28;20613;-91
2022/10/23 07:47:50;;;;;;;6.90;4.67;;;12.40;99.90;;;;;;5041740;28;21520;-92
2022/10/23 07:50:18;;;;;;;8.17;4.80;;;12.20;99.90;;;;;;5045994;28;20637;-92
2022/10/23 07:52:44;;;;;;;5.47;4.37;;;12.80;99.90;;;;;;5043786;28;21024;-92
2022/10/23 07:55:11;;;;;;;3.60;3.30;;;12.70;99.90;;;;;;5043128;28;20655;-91
2022/10/23 07:57:39;;;;;;;5.13;3.50;;;12.60;99.90;;;;;;5037129;28;20662;-92
2022/10/23 08:00:07;;;;;;;3.63;3.30;;;12.80;99.90;;;;;;5042292;28;20629;-92
2022/10/23 08:02:34;;;;;;;5.30;3.57;;;12.90;99.90;;;;;;5048263;28;21221;-92
2022/10/23 08:05:02;;;;;;;4.30;3.80;;;12.50;99.90;;;;;;5048348;28;21212;-92
2022/10/23 08:07:29;;;;;;;6.97;4.30;;;12.90;99.90;;;;;;5047568;28;20642;-92
2022/10/23 08:09:57;;;;;;;9.60;3.80;;;12.70;99.90;;;;;;5049090;28;20630;-91
2022/10/23 08:12:24;;;;;;;5.80;3.87;;;13.10;99.90;;;;;;5047306;28;20633;-92
2022/10/23 08:14:52;;;;;;;8.87;4.53;;;12.90;99.90;;;;;;5046939;28;20640;-92
2022/10/23 08:17:19;;;;;;;4.63;3.73;;;13.20;99.90;;;;;;5049848;28;21222;-91
2022/10/23 08:19:47;;;;;;;5.87;4.37;;;13.40;99.90;;;;;;5049075;28;20618;-90
2022/10/23 08:22:15;;;;;;;4.97;4.57;;;13.70;99.90;;;;;;5040662;28;20634;-90
2022/10/23 08:24:42;;;;;;;6.43;3.20;;;13.80;99.90;;;;;;5047622;28;21126;-91
2022/10/23 08:27:16;;;;;;;5.33;3.50;;;14.00;99.90;;;;;;5051373;28;20736;-92
2022/10/23 08:29:43;;;;;;;3.97;3.50;;;14.40;99.90;;;;;;5049670;28;21143;-92
2022/10/23 08:32:11;;;;;;;3.50;3.20;;;14.70;99.90;;;;;;5060458;28;20630;-91
2022/10/23 08:34:40;;;;;;;6.33;3.33;;;15.10;99.90;;;;;;5062075;28;20618;-91
2022/10/23 08:37:07;;;;;;;4.80;4.27;;;15.20;99.90;;;;;;5065144;28;20744;-91
2022/10/23 08:39:37;;;;;;;4.93;3.80;;;15.10;99.90;;;;;;5058025;28;21045;-89
2022/10/23 08:42:04;;;;;;;5.77;3.40;;;14.90;99.90;;;;;;5060458;28;20614;-91
2022/10/23 08:44:36;;;;;;;4.00;3.27;;;15.10;99.90;;;;;;5072288;28;20632;-91
2022/10/23 08:47:08;;;;;;;4.43;4.03;;;15.30;99.90;;;;;;5073261;28;20625;-92
2022/10/23 08:49:44;;;;;;;4.40;4.00;;;15.30;99.90;;;;;;5075958;28;20661;-89
2022/10/23 08:52:17;;;;;;;2.73;2.53;;;15.00;99.90;;;;;;5060197;28;20630;-89
2022/10/23 08:54:57;;;;;;;4.43;3.40;;;14.90;99.90;;;;;;5050808;28;20614;-91
2022/10/23 08:57:31;;;;;;;10.30;5.90;;;14.90;99.90;;;;;;5046940;28;20650;-90
2022/10/23 09:00:00;;;;;;;5.37;3.47;;;14.90;99.90;;;;;;5052523;28;20621;-90
2022/10/23 09:02:40;;;;;;;8.37;3.50;;;15.00;99.90;;;;;;5048519;28;20628;-92
2022/10/23 09:05:14;;;;;;;7.50;3.83;;;14.70;99.90;;;;;;5052641;28;20820;-90
2022/10/23 09:07:51;;;;;;;4.43;4.03;;;14.80;99.90;;;;;;5068461;28;20643;-91
2022/10/23 09:10:34;;;;;;;4.97;4.17;;;15.00;99.90;;;;;;5050905;28;20637;-91
2022/10/23 09:13:12;;;;;;;6.57;4.00;;;15.10;99.90;;;;;;5045742;28;21147;-91
2022/10/23 09:15:42;;;;;;;8.20;3.90;;;15.30;99.90;;;;;;5050583;28;20636;-91
2022/10/23 09:18:13;;;;;;;9.30;3.97;;;15.50;99.90;;;;;;5052983;28;20614;-92
2022/10/23 09:20:43;;;;;;;9.30;4.40;;;15.80;99.90;;;;;;5051865;28;20709;-91
2022/10/23 09:23:16;;;;;;;4.77;4.17;;;16.40;99.90;;;;;;5048991;28;20613;-91
2022/10/23 09:25:47;;;;;;;5.23;3.73;;;16.60;99.90;;;;;;5049607;28;20648;-91
2022/10/23 09:28:19;;;;;;;5.40;4.13;;;16.90;99.90;;;;;;5045366;28;20724;-93
2022/10/23 09:30:47;;;;;;;5.83;3.30;;;17.60;99.90;;;;;;5050063;28;21185;-90
2022/10/23 09:33:16;;;;;;;5.00;3.60;;;17.90;99.90;;;;;;5050420;28;21233;-91
2022/10/23 09:35:56;;;;;;;7.03;4.27;;;18.10;99.90;;;;;;5049223;28;20610;-91
2022/10/23 09:38:28;;;;;;;5.27;2.97;;;19.00;99.90;;;;;;5052033;28;20629;-91
2022/10/23 09:40:58;;;;;;;3.77;3.00;;;19.30;99.90;;;;;;5049121;28;20709;-91
2022/10/23 09:43:28;;;;;;;4.97;2.23;;;19.50;99.90;;;;;;5048967;28;20664;-90
2022/10/23 09:46:00;;;;;;;3.57;2.13;;;19.40;99.90;;;;;;5055546;28;20665;-90
2022/10/23 09:48:27;;;;;;;2.03;1.83;;;19.00;99.90;;;;;;5062788;28;20760;-91
2022/10/23 09:50:56;;;;;;;1.63;1.53;;;20.00;99.90;;;;;;5061098;28;20628;-91
2022/10/23 09:53:33;;;;;;;2.40;1.27;;;20.70;99.90;;;;;;5055797;28;20669;-91
2022/10/23 09:56:06;;;;;;;1.90;1.60;;;21.10;99.90;;;;;;5046110;28;20657;-90
2022/10/23 09:58:36;;;;;;;2.07;1.20;;;21.40;99.90;;;;;;5047241;28;20665;-90
2022/10/23 10:01:04;;;;;;;2.00;1.30;;;21.70;99.90;;;;;;5047983;28;20630;-91
2022/10/23 10:03:31;;;;;;;1.83;1.20;;;22.20;99.90;;;;;;5049385;28;20618;-90
2022/10/23 10:06:01;;;;;;;0.93;0.90;;;22.90;95.40;;;;;;5050446;28;20664;-90
2022/10/23 10:08:35;;;;;;;1.43;1.40;;;23.00;93.10;;;;;;5048413;28;21201;-90
2022/10/23 10:11:10;;;;;;;2.40;2.20;;;21.20;94.00;;;;;;5043437;28;20656;-91
2022/10/23 10:14:21;;;;;;;5.23;1.60;;;21.60;95.70;;;;;;5045533;28;20670;-89
2022/10/23 10:16:54;;;;;;;1.93;1.20;;;22.00;96.00;;;;;;5022539;28;21087;-91
2022/10/23 10:19:36;;;;;;;3.07;1.30;;;22.40;96.10;;;;;;5048180;28;20634;-90
2022/10/23 10:22:11;;;;;;;1.40;1.30;;;21.20;99.40;;;;;;5046524;28;20622;-90
2022/10/23 10:24:46;;;;;;;3.33;1.70;;;20.70;99.90;;;;;;5048412;28;20586;-90
2022/10/23 10:27:29;;;;;;;1.70;1.53;;;21.50;99.90;;;;;;5047938;28;20714;-90
2022/10/23 10:30:04;;;;;;;2.03;1.90;;;21.00;99.90;;;;;;5049195;28;20621;-89
2022/10/23 10:32:39;;;;;;;4.80;1.30;;;20.70;99.90;;;;;;5043604;28;20746;-90
2022/10/23 10:35:26;;;;;;;2.03;1.53;;;21.90;99.90;;;;;;5042861;28;20657;-90
2022/10/23 10:38:07;;;;;;;1.90;1.20;;;23.20;99.90;;;;;;5048872;28;20626;-91
2022/10/23 10:40:39;;;;;;;2.40;1.10;;;23.70;94.20;;;;;;5040225;28;21497;-90
2022/10/23 10:43:24;;;;;;;2.97;1.90;;;23.70;92.80;;;;;;5044366;28;20626;-90
2022/10/23 10:46:02;;;;;;;2.20;1.87;;;24.70;92.00;;;;;;5051123;28;20786;-91
2022/10/23 10:48:47;;;;;;;5.23;1.60;;;25.50;88.50;;;;;;5056354;28;20675;-91
2022/10/23 10:51:33;;;;;;;2.73;1.60;;;25.70;84.10;;;;;;5068645;28;20621;-90
2022/10/23 10:54:15;;;;;;;1.80;1.70;;;25.30;84.50;;;;;;5069979;28;20715;-90
2022/10/23 10:56:45;;;;;;;1.73;1.43;;;23.40;91.20;;;;;;5068535;28;20785;-90
2022/10/23 10:59:20;;;;;;;1.90;1.37;;;22.20;97.50;;;;;;5070095;28;20617;-91
2022/10/23 11:01:52;;;;;;;1.87;1.70;;;22.70;96.60;;;;;;5064381;28;20641;-91
2022/10/23 11:04:29;;;;;;;2.07;1.87;;;22.00;99.60;;;;;;5047487;28;20658;-91
2022/10/23 11:06:58;;;;;;;3.27;1.90;;;21.80;99.90;;;;;;5047136;28;21095;-89
2022/10/23 11:09:28;;;;;;;1.30;1.20;;;21.90;99.90;;;;;;5049098;28;20630;-90
2022/10/23 11:11:55;;;;;;;1.20;1.10;;;21.30;99.90;;;;;;5046132;28;20994;-90
2022/10/23 11:14:26;;;;;;;1.73;1.50;;;21.80;99.90;;;;;;5046050;28;20688;-89
2022/10/23 11:16:58;;;;;;;1.40;0.93;;;21.90;99.90;;;;;;5047108;28;20660;-89
2022/10/23 11:19:29;;;;;;;6.10;1.40;;;22.10;99.90;;;;;;5044926;28;20676;-90
2022/10/23 11:22:02;;;;;;;1.83;1.07;;;21.70;99.90;;;;;;5047121;28;20623;-89
2022/10/23 11:24:56;;;;;;;2.00;1.17;;;21.30;99.90;;;;;;5052569;28;20673;-90
2022/10/23 11:27:34;;;;;;;2.90;1.87;;;21.20;99.90;;;;;;5045243;28;20646;-91
2022/10/23 11:30:18;;;;;;;1.37;1.10;;;20.90;99.90;;;;;;5050593;28;20725;-89
2022/10/23 11:33:06;;;;;;;2.77;1.93;;;21.40;99.90;;;;;;5047988;28;20624;-90
2022/10/23 11:35:45;;;;;;;6.40;1.60;;;21.30;99.90;;;;;;5044195;28;20724;-90
2022/10/23 11:38:18;;;;;;;2.50;1.20;;;21.60;99.90;;;;;;5046437;28;20637;-91
2022/10/23 11:40:47;;;;;;;2.60;1.20;;;21.70;99.90;;;;;;5046245;28;20630;-91
2022/10/23 11:43:25;;;;;;;16.87;1.80;;;21.70;99.90;;;;;;5047043;28;20648;-89
2022/10/23 11:45:54;;;;;;;2.50;1.30;;;21.70;99.90;;;;;;5045696;28;20648;-89
2022/10/23 11:48:23;;;;;;;4.30;3.47;;;21.30;99.90;;;;;;5043119;28;20896;-90
2022/10/23 11:50:53;;;;;;;2.80;2.30;;;21.00;99.90;;;;;;5047000;28;20627;-89
2022/10/23 11:53:27;;;;;;;2.50;2.40;;;20.90;99.90;;;;;;5042180;28;20630;-90
2022/10/23 11:56:04;;;;;;;3.27;2.60;;;20.50;99.90;;;;;;5049084;28;20661;-89
2022/10/23 11:58:42;;;;;;;2.17;1.33;;;20.20;99.90;;;;;;5049922;28;20693;-90
2022/10/23 12:01:24;;;;;;;2.03;1.93;;;20.20;99.90;;;;;;5047244;28;20640;-91
2022/10/23 12:03:54;;;;;;;1.40;1.30;;;20.20;99.90;;;;;;5049954;28;21186;-91
2022/10/23 12:06:25;;;;;;;1.67;1.30;;;20.70;99.90;;;;;;5043155;28;20676;-91
2022/10/23 12:08:56;;;;;;;1.60;1.30;;;20.80;99.90;;;;;;5045179;28;20622;-91
2022/10/23 12:11:43;;;;;;;4.77;1.83;;;20.80;99.90;;;;;;5044847;28;21504;-90
2022/10/23 12:14:30;;;;;;;1.50;1.40;;;20.80;99.90;;;;;;5045571;28;20665;-91
2022/10/23 12:16:59;;;;;;;3.50;1.87;;;21.00;99.90;;;;;;5058734;28;20669;-91
2022/10/23 12:19:28;;;;;;;3.10;1.60;;;21.00;99.90;;;;;;5058011;28;20614;-90
2022/10/23 12:21:58;;;;;;;2.33;2.00;;;21.10;99.90;;;;;;5059760;28;20682;-91
2022/10/23 12:24:51;;;;;;;9.60;2.23;;;22.00;99.90;;;;;;5053062;28;20645;-91
2022/10/23 12:27:26;;;;;;;6.73;1.53;;;22.40;99.90;;;;;;5049180;28;21152;-92
2022/10/23 12:30:21;;;;;;;2.50;1.50;;;22.50;99.90;;;;;;5048370;28;20640;-92
2022/10/23 12:33:05;;;;;;;11.90;2.30;;;21.90;99.90;;;;;;5042310;28;20613;-88
2022/10/23 12:35:53;;;;;;;3.03;1.67;;;21.90;99.90;;;;;;5042337;28;20741;-90
2022/10/23 12:38:22;;;;;;;3.23;1.60;;;22.40;99.90;;;;;;5041077;28;20638;-89
2022/10/23 12:40:53;;;;;;;1.97;1.87;;;22.60;99.90;;;;;;5023029;28;20640;-90
2022/10/23 12:43:26;;;;;;;1.87;1.30;;;22.40;99.90;;;;;;5046922;28;20636;-90
2022/10/23 12:45:55;;;;;;;3.40;2.10;;;22.70;99.90;;;;;;5044396;28;21002;-90
2022/10/23 12:48:24;;;;;;;2.40;1.70;;;23.00;99.90;;;;;;5029559;28;20657;-90
2022/10/23 12:50:53;;;;;;;4.63;2.00;;;23.30;98.10;;;;;;5032841;28;20993;-90
2022/10/23 12:53:23;;;;;;;2.63;1.80;;;23.80;97.10;;;;;;5040217;28;20637;-90
2022/10/23 12:55:54;;;;;;;3.93;1.57;;;24.30;94.70;;;;;;5037222;28;20784;-90
2022/10/23 12:58:23;;;;;;;3.77;1.90;;;25.40;91.40;;;;;;5045176;28;20638;-91
2022/10/23 13:00:51;;;;;;;2.90;1.50;;;26.40;87.80;;;;;;5048029;28;20634;-90
2022/10/23 13:03:22;;;;;;;6.03;1.97;;;26.60;85.70;;;;;;5045664;28;20634;-92
2022/10/23 13:05:52;;;;;;;1.93;1.73;;;27.40;80.90;;;;;;5040383;28;20655;-91